createdAt,value
2023-01-04T00:02:06.865Z,16.77
2023-01-04T00:04:34.906Z,20.02
2023-01-04T00:07:02.984Z,23.20
2023-01-04T00:09:30.945Z,21.48
2023-01-04T00:11:58.961Z,18.05
2023-01-04T00:14:26.939Z,20.48
2023-01-04T00:16:55.032Z,19.58
2023-01-04T00:19:24.546Z,20.80
2023-01-04T00:21:53.172Z,25.35
2023-01-04T00:24:21.126Z,19.83
2023-01-04T00:26:49.065Z,20.27
2023-01-04T00:29:17.000Z,22.65
2023-01-04T00:31:45.521Z,19.75
2023-01-04T00:34:15.916Z,19.95
2023-01-04T00:36:45.753Z,20.33
2023-01-04T00:39:15.775Z,29.52
2023-01-04T00:42:02.945Z,26.63
2023-01-04T00:44:31.775Z,25.23
2023-01-04T00:47:00.079Z,20.38
2023-01-04T00:49:29.011Z,22.27
2023-01-04T00:51:59.213Z,20.77
2023-01-04T00:54:27.335Z,26.30
2023-01-04T00:56:55.434Z,23.23
2023-01-04T00:59:23.608Z,26.63
2023-01-04T01:01:52.480Z,23.70
2023-01-04T01:04:24.163Z,29.85
2023-01-04T01:06:53.094Z,25.30
2023-01-04T01:09:23.597Z,26.73
2023-01-04T01:11:52.481Z,24.45
2023-01-04T01:14:23.100Z,26.00
2023-01-04T01:16:57.654Z,29.13
2023-01-04T01:19:27.563Z,33.63
2023-01-04T01:21:56.974Z,28.65
2023-01-04T01:24:27.650Z,24.85
2023-01-04T01:26:59.361Z,24.58
2023-01-04T01:29:27.471Z,30.73
2023-01-04T01:31:55.511Z,26.30
2023-01-04T01:34:23.649Z,28.48
2023-01-04T01:36:51.587Z,30.83
2023-01-04T01:39:19.604Z,27.85
2023-01-04T01:41:49.424Z,31.55
2023-01-04T01:44:55.164Z,30.60
2023-01-04T01:47:24.985Z,33.55
2023-01-04T01:49:55.038Z,33.13
2023-01-04T01:52:25.599Z,34.38
2023-01-04T01:54:58.165Z,37.20
2023-01-04T02:00:02.017Z,33.80
2023-01-04T02:02:30.251Z,37.78
2023-01-04T02:05:00.268Z,36.28
2023-01-04T02:07:30.124Z,38.03
2023-01-04T02:09:59.329Z,33.83
2023-01-04T02:12:28.620Z,36.13
2023-01-04T02:14:56.554Z,34.83
2023-01-04T02:17:34.613Z,40.42
2023-01-04T02:20:33.766Z,38.10
2023-01-04T02:23:53.530Z,33.17
2023-01-04T02:26:49.648Z,30.42
2023-01-04T02:29:59.630Z,32.22
2023-01-04T02:32:41.566Z,29.30
2023-01-04T02:35:18.604Z,24.15
2023-01-04T02:37:51.941Z,25.13
2023-01-04T02:40:24.477Z,26.58
2023-01-04T02:45:51.925Z,23.27
2023-01-04T02:48:38.563Z,21.98
2023-01-04T02:51:09.210Z,20.90
2023-01-04T02:53:40.748Z,18.83
2023-01-04T02:56:16.783Z,19.75
2023-01-04T02:59:01.779Z,16.15
2023-01-04T03:01:56.999Z,19.15
2023-01-04T03:04:56.257Z,17.42
2023-01-04T03:07:28.898Z,16.10
2023-01-04T03:10:03.678Z,16.58
2023-01-04T03:12:39.763Z,16.80
2023-01-04T03:15:16.174Z,13.15
2023-01-04T03:17:50.457Z,14.60
2023-01-04T03:20:22.052Z,12.15
2023-01-04T03:23:13.106Z,14.93
2023-01-04T03:26:01.293Z,13.23
2023-01-04T03:28:51.513Z,11.63
2023-01-04T03:31:42.720Z,12.82
2023-01-04T03:34:29.205Z,11.50
2023-01-04T03:37:08.561Z,13.32
2023-01-04T03:40:07.139Z,14.65
2023-01-04T03:43:02.857Z,14.10
2023-01-04T03:45:52.066Z,14.50
2023-01-04T03:48:29.360Z,16.20
2023-01-04T03:51:09.704Z,12.82
2023-01-04T03:53:44.367Z,12.05
2023-01-04T03:56:13.561Z,9.70
2023-01-04T03:58:41.813Z,11.63
2023-01-04T04:01:09.828Z,11.07
2023-01-04T04:03:55.476Z,10.45
2023-01-04T04:06:40.983Z,12.40
2023-01-04T04:09:10.598Z,12.18
2023-01-04T04:11:40.759Z,11.80
2023-01-04T04:14:08.743Z,13.02
2023-01-04T04:16:36.739Z,10.95
2023-01-04T04:19:08.547Z,17.10
2023-01-04T04:21:37.206Z,11.93
2023-01-04T04:24:05.520Z,12.05
2023-01-04T04:26:34.844Z,12.23
2023-01-04T04:29:02.752Z,12.70
2023-01-04T04:31:30.823Z,11.60
2023-01-04T04:33:58.804Z,13.63
2023-01-04T04:36:26.875Z,10.88
2023-01-04T04:38:54.741Z,11.57
2023-01-04T04:41:41.232Z,17.10
2023-01-04T04:44:13.049Z,13.07
2023-01-04T04:46:41.455Z,10.52
2023-01-04T04:49:09.976Z,15.55
2023-01-04T04:51:38.400Z,17.45
2023-01-04T04:54:07.225Z,12.75
2023-01-04T04:56:36.694Z,22.25
2023-01-04T04:59:04.640Z,18.77
2023-01-04T05:01:34.124Z,14.30
2023-01-04T05:04:02.213Z,16.05
2023-01-04T05:06:30.215Z,19.85
2023-01-04T05:08:58.441Z,15.20
2023-01-04T05:11:40.264Z,17.13
2023-01-04T05:14:08.243Z,10.77
2023-01-04T05:16:37.807Z,21.02
2023-01-04T05:19:07.207Z,19.17
2023-01-04T05:21:35.251Z,17.27
2023-01-04T05:24:03.403Z,20.38
2023-01-04T05:26:31.420Z,21.98
2023-01-04T05:28:59.437Z,20.05
2023-01-04T05:31:26.958Z,17.75
2023-01-04T05:33:56.528Z,16.92
2023-01-04T05:36:24.639Z,22.48
2023-01-04T05:38:55.254Z,19.88
2023-01-04T05:41:42.998Z,20.98
2023-01-04T05:44:11.097Z,20.30
2023-01-04T05:46:39.154Z,19.88
2023-01-04T05:49:08.529Z,20.02
2023-01-04T05:51:36.466Z,19.83
2023-01-04T05:54:04.562Z,17.25
2023-01-04T05:56:32.642Z,21.48
2023-01-04T05:59:00.756Z,21.10
2023-01-04T06:01:28.959Z,17.55
2023-01-04T06:03:58.081Z,17.50
2023-01-04T06:06:27.462Z,18.58
2023-01-04T06:08:58.392Z,18.23
2023-01-04T06:11:27.885Z,17.90
2023-01-04T06:13:56.012Z,20.92
2023-01-04T06:16:24.008Z,21.33
2023-01-04T06:18:51.957Z,17.30
2023-01-04T06:21:19.864Z,13.00
2023-01-04T06:23:49.387Z,15.68
2023-01-04T06:26:17.348Z,15.20
2023-01-04T06:28:45.456Z,14.77
2023-01-04T06:31:13.641Z,13.52
2023-01-04T06:33:41.592Z,11.50
2023-01-04T06:36:19.425Z,11.38
2023-01-04T06:38:52.063Z,12.40
2023-01-04T06:41:20.855Z,13.25
2023-01-04T06:43:48.778Z,17.52
2023-01-04T06:46:16.857Z,16.95
2023-01-04T06:48:44.926Z,13.88
2023-01-04T06:51:13.072Z,14.00
2023-01-04T06:53:41.455Z,15.27
2023-01-04T06:56:13.818Z,13.13
2023-01-04T06:58:42.116Z,14.55
2023-01-04T07:01:12.674Z,12.75
2023-01-04T07:03:40.649Z,12.93
2023-01-04T07:06:10.810Z,12.80
2023-01-04T07:08:41.698Z,10.43
2023-01-04T07:11:11.094Z,10.48
2023-01-04T07:13:38.980Z,11.73
2023-01-04T07:16:07.591Z,7.47
2023-01-04T07:18:35.555Z,8.32
2023-01-04T07:21:03.513Z,10.45
2023-01-04T07:23:31.376Z,5.10
2023-01-04T07:26:02.774Z,5.78
2023-01-04T07:28:49.493Z,8.65
2023-01-04T07:31:17.573Z,9.02
2023-01-04T07:33:45.500Z,9.45
2023-01-04T07:36:13.352Z,7.63
2023-01-04T07:38:41.240Z,8.02
2023-01-04T07:41:12.008Z,5.75
2023-01-04T07:43:41.277Z,6.28
2023-01-04T07:46:09.308Z,6.97
2023-01-04T07:48:37.241Z,8.10
2023-01-04T07:51:05.252Z,5.32
2023-01-04T07:53:34.094Z,6.57
2023-01-04T07:56:02.077Z,5.90
2023-01-04T07:58:34.150Z,8.35
2023-01-04T08:01:09.324Z,9.65
2023-01-04T08:03:37.415Z,6.38
2023-01-04T08:06:10.982Z,7.28
2023-01-04T08:08:39.195Z,5.28
2023-01-04T08:11:09.358Z,5.50
2023-01-04T08:13:37.361Z,8.02
2023-01-04T08:16:06.044Z,6.07
2023-01-04T08:18:35.843Z,8.63
2023-01-04T08:21:06.927Z,7.35
2023-01-04T08:23:37.600Z,5.78
2023-01-04T08:26:06.851Z,6.47
2023-01-04T08:28:37.871Z,6.35
2023-01-04T08:31:08.375Z,5.53
2023-01-04T08:33:40.606Z,7.65
2023-01-04T08:36:12.509Z,6.13
2023-01-04T08:38:59.258Z,8.80
2023-01-04T08:41:56.735Z,6.65
2023-01-04T08:44:16.186Z,5.47
2023-01-04T08:46:46.985Z,6.18
2023-01-04T08:49:16.467Z,6.57
2023-01-04T08:51:44.814Z,8.10
2023-01-04T08:54:14.905Z,8.07
2023-01-04T08:56:43.394Z,6.93
2023-01-04T08:59:12.774Z,7.30
2023-01-04T09:01:41.768Z,9.05
2023-01-04T09:04:11.319Z,12.25
2023-01-04T09:06:41.126Z,5.95
2023-01-04T09:09:09.125Z,4.75
2023-01-04T09:11:39.375Z,5.10
2023-01-04T09:14:09.369Z,6.55
2023-01-04T09:16:42.604Z,6.13
2023-01-04T09:19:10.495Z,4.05
2023-01-04T09:21:42.418Z,6.28
2023-01-04T09:24:13.837Z,4.10
2023-01-04T09:26:41.752Z,5.05
2023-01-04T09:29:12.089Z,4.65
2023-01-04T09:31:40.567Z,3.78
2023-01-04T09:34:18.175Z,3.47
2023-01-04T09:36:48.844Z,4.47
2023-01-04T09:39:24.888Z,4.85
2023-01-04T09:41:57.796Z,7.05
2023-01-04T09:45:12.322Z,5.57
2023-01-04T09:47:32.801Z,7.32
2023-01-04T09:50:06.483Z,3.25
2023-01-04T09:52:47.581Z,5.18
2023-01-04T09:55:38.324Z,6.82
2023-01-04T09:58:22.800Z,9.30
2023-01-04T10:00:55.220Z,4.40
2023-01-04T10:05:55.829Z,5.10
2023-01-04T10:08:25.913Z,3.15
2023-01-04T10:11:08.703Z,4.60
2023-01-04T10:16:52.449Z,3.92
2023-01-04T10:22:26.720Z,3.78
2023-01-04T10:25:05.280Z,5.00
2023-01-04T10:27:42.939Z,3.47
2023-01-04T10:30:27.214Z,8.75
2023-01-04T10:33:09.032Z,3.38
2023-01-04T10:35:40.796Z,3.80
2023-01-04T10:38:19.230Z,5.75
2023-01-04T10:40:50.467Z,3.97
2023-01-04T10:44:09.995Z,3.60
2023-01-04T10:46:38.964Z,4.32
2023-01-04T10:49:13.296Z,5.47
2023-01-04T10:51:45.408Z,3.03
2023-01-04T10:54:25.480Z,5.22
2023-01-04T10:57:05.145Z,3.92
2023-01-04T10:59:40.778Z,3.83
2023-01-04T11:02:19.394Z,3.75
2023-01-04T11:04:53.553Z,4.38
2023-01-04T11:07:25.824Z,2.47
2023-01-04T11:09:59.415Z,4.93
2023-01-04T11:12:29.033Z,4.00
2023-01-04T11:14:57.432Z,3.78
2023-01-04T11:17:28.602Z,3.10
2023-01-04T11:19:58.039Z,2.65
2023-01-04T11:22:31.071Z,7.38
2023-01-04T11:28:01.437Z,4.82
2023-01-04T11:30:37.106Z,3.67
2023-01-04T11:33:12.096Z,4.35
2023-01-04T11:35:43.818Z,6.00
2023-01-04T11:38:16.425Z,3.20
2023-01-04T11:43:28.022Z,2.88
2023-01-04T11:48:39.820Z,5.00
2023-01-04T11:51:19.782Z,3.22
2023-01-04T11:53:57.204Z,2.85
2023-01-04T11:56:26.369Z,3.08
2023-01-04T11:59:17.784Z,3.95
2023-01-04T12:01:53.261Z,2.50
2023-01-04T12:04:23.876Z,5.65
2023-01-04T12:06:54.314Z,2.92
2023-01-04T12:09:28.501Z,3.70
2023-01-04T12:12:02.629Z,5.53
2023-01-04T12:14:38.292Z,3.17
2023-01-04T12:17:12.955Z,3.22
2023-01-04T12:19:43.388Z,2.75
2023-01-04T12:22:24.165Z,3.55
2023-01-04T12:25:00.035Z,3.60
2023-01-04T12:27:31.472Z,2.30
2023-01-04T12:30:02.135Z,2.78
2023-01-04T12:32:46.978Z,4.43
2023-01-04T12:36:03.062Z,3.28
2023-01-04T12:39:17.095Z,4.50
2023-01-04T12:42:21.917Z,2.45
2023-01-04T12:45:23.273Z,5.60
2023-01-04T12:48:13.409Z,5.50
2023-01-04T12:51:37.404Z,2.47
2023-01-04T12:54:24.709Z,3.15
2023-01-04T12:57:25.670Z,3.30
2023-01-04T13:00:02.403Z,2.20
2023-01-04T13:02:32.610Z,3.63
2023-01-04T13:05:53.211Z,5.53
2023-01-04T13:07:54.251Z,1.83
2023-01-04T13:10:32.097Z,2.67
2023-01-04T13:13:16.167Z,2.60
2023-01-04T13:16:02.789Z,2.50
2023-01-04T13:18:43.007Z,2.00
2023-01-04T13:21:16.940Z,1.90
2023-01-04T13:23:51.361Z,6.50
2023-01-04T13:26:38.073Z,3.75
2023-01-04T13:29:17.691Z,3.47
2023-01-04T13:31:58.540Z,2.40
2023-01-04T13:34:33.843Z,2.75
2023-01-04T13:37:08.742Z,2.25
2023-01-04T13:39:41.262Z,4.45
2023-01-04T13:45:19.102Z,2.78
2023-01-04T13:47:57.215Z,3.78
2023-01-04T13:50:33.825Z,3.53
2023-01-04T13:53:07.436Z,3.92
2023-01-04T13:55:37.798Z,3.55
2023-01-04T13:58:07.849Z,2.13
2023-01-04T14:00:42.738Z,2.35
2023-01-04T14:03:35.472Z,3.63
2023-01-04T14:06:23.082Z,3.28
2023-01-04T14:08:59.178Z,2.83
2023-01-04T14:11:49.733Z,3.40
2023-01-04T14:14:32.754Z,2.05
2023-01-04T14:17:28.693Z,2.63
2023-01-04T14:19:59.091Z,3.70
2023-01-04T14:22:42.396Z,4.53
2023-01-04T14:25:56.512Z,2.20
2023-01-04T14:28:33.613Z,2.75
2023-01-04T14:31:33.222Z,2.33
2023-01-04T14:34:14.436Z,2.22
2023-01-04T14:36:44.700Z,2.63
2023-01-04T14:39:29.325Z,2.72
2023-01-04T14:41:59.863Z,2.67
2023-01-04T14:44:31.169Z,1.63
2023-01-04T14:47:01.141Z,2.22
2023-01-04T14:49:31.678Z,4.15
2023-01-04T14:52:02.446Z,3.05
2023-01-04T14:54:31.693Z,3.53
2023-01-04T14:57:00.509Z,2.00
2023-01-04T14:59:31.947Z,2.75
2023-01-04T15:02:04.367Z,1.80
2023-01-04T15:07:02.321Z,1.35
2023-01-04T15:09:31.082Z,3.25
2023-01-04T15:11:59.488Z,1.98
2023-01-04T15:14:27.652Z,1.38
2023-01-04T15:16:55.670Z,1.65
2023-01-04T15:19:23.668Z,2.33
2023-01-04T15:21:52.047Z,2.35
2023-01-04T15:24:21.504Z,1.35
2023-01-04T15:26:49.904Z,1.35
2023-01-04T15:29:20.865Z,1.27
2023-01-04T15:31:48.887Z,1.48
2023-01-04T15:34:18.139Z,2.67
2023-01-04T15:36:46.045Z,3.15
2023-01-04T15:39:14.987Z,0.98
2023-01-04T15:42:04.503Z,2.67
2023-01-04T15:44:33.925Z,1.67
2023-01-04T15:47:01.955Z,2.25
2023-01-04T15:49:31.345Z,2.85
2023-01-04T15:52:02.399Z,1.10
2023-01-04T15:54:30.792Z,5.00
2023-01-04T15:57:00.201Z,0.73
2023-01-04T15:59:30.137Z,1.08
2023-01-04T16:01:58.157Z,1.30
2023-01-04T16:04:31.897Z,0.90
2023-01-04T16:07:02.429Z,1.58
2023-01-04T16:09:30.443Z,2.08
2023-01-04T16:12:17.127Z,5.50
2023-01-04T16:14:45.058Z,1.65
2023-01-04T16:17:15.729Z,2.30
2023-01-04T16:19:50.302Z,1.17
2023-01-04T16:22:18.257Z,4.30
2023-01-04T16:27:39.207Z,4.93
2023-01-04T16:30:09.734Z,1.20
2023-01-04T16:32:38.257Z,2.75
2023-01-04T16:35:06.707Z,5.65
2023-01-04T16:37:34.645Z,1.30
2023-01-04T16:40:07.252Z,1.52
2023-01-04T16:42:38.177Z,2.08
2023-01-04T16:45:07.614Z,1.40
2023-01-04T16:47:41.148Z,2.20
2023-01-04T16:50:10.799Z,2.90
2023-01-04T16:52:41.261Z,1.27
2023-01-04T16:55:11.716Z,2.38
2023-01-04T16:57:41.288Z,1.67
2023-01-04T17:00:10.673Z,2.17
2023-01-04T17:02:40.152Z,3.17
2023-01-04T17:05:10.013Z,3.42
2023-01-04T17:07:38.185Z,2.08
2023-01-04T17:10:07.457Z,3.50
2023-01-04T17:12:47.225Z,3.65
2023-01-04T17:18:06.739Z,1.48
2023-01-04T17:20:35.075Z,2.10
2023-01-04T17:23:05.515Z,3.17
2023-01-04T17:25:33.630Z,3.92
2023-01-04T17:28:01.715Z,1.60
2023-01-04T17:30:31.687Z,2.35
2023-01-04T17:32:59.723Z,3.30
2023-01-04T17:35:27.695Z,2.78
2023-01-04T17:37:55.731Z,2.15
2023-01-04T17:40:24.167Z,1.98
2023-01-04T17:42:54.383Z,1.67
2023-01-04T17:45:22.570Z,3.17
2023-01-04T17:47:52.455Z,2.88
2023-01-04T17:50:21.336Z,3.33
2023-01-04T17:52:53.834Z,6.50
2023-01-04T17:57:50.284Z,2.40
2023-01-04T18:00:18.798Z,2.90
2023-01-04T18:02:46.797Z,3.22
2023-01-04T18:05:16.348Z,2.47
2023-01-04T18:07:44.304Z,2.47
2023-01-04T18:10:21.510Z,3.03
2023-01-04T18:13:01.211Z,2.50
2023-01-04T18:15:29.239Z,1.20
2023-01-04T18:17:57.698Z,3.67
2023-01-04T18:20:29.164Z,3.40
2023-01-04T18:22:57.208Z,3.90
2023-01-04T18:25:27.344Z,2.40
2023-01-04T18:27:55.247Z,3.33
2023-01-04T18:30:23.182Z,3.53
2023-01-04T18:32:51.507Z,3.45
2023-01-04T18:35:19.403Z,2.85
2023-01-04T18:37:49.079Z,2.30
2023-01-04T18:40:17.096Z,2.17
2023-01-04T18:42:49.207Z,3.85
2023-01-04T18:45:17.675Z,2.42
2023-01-04T18:47:47.520Z,3.42
2023-01-04T18:50:16.083Z,2.22
2023-01-04T18:52:48.255Z,1.25
2023-01-04T18:55:16.420Z,2.13
2023-01-04T18:57:44.286Z,1.67
2023-01-04T19:00:13.544Z,2.22
2023-01-04T19:02:41.861Z,2.08
2023-01-04T19:05:11.169Z,2.88
2023-01-04T19:07:40.253Z,1.83
2023-01-04T19:10:10.663Z,1.95
2023-01-04T19:12:38.972Z,1.95
2023-01-04T19:15:09.178Z,2.42
2023-01-04T19:17:37.426Z,2.15
2023-01-04T19:20:06.027Z,1.92
2023-01-04T19:22:37.210Z,2.38
2023-01-04T19:25:06.146Z,1.23
2023-01-04T19:27:38.629Z,2.33
2023-01-04T19:32:35.359Z,2.47
2023-01-04T19:35:03.431Z,2.70
2023-01-04T19:37:31.499Z,2.50
2023-01-04T19:40:01.335Z,1.98
2023-01-04T19:42:29.408Z,1.27
2023-01-04T19:45:01.799Z,3.75
2023-01-04T19:47:29.766Z,1.45
2023-01-04T19:49:57.811Z,1.55
2023-01-04T19:52:26.092Z,2.53
2023-01-04T19:54:54.147Z,2.05
2023-01-04T19:57:22.230Z,1.20
2023-01-04T19:59:50.902Z,0.73
2023-01-04T20:02:20.753Z,1.35
2023-01-04T20:04:48.866Z,1.25
2023-01-04T20:07:21.368Z,2.92
2023-01-04T20:12:19.590Z,1.52
2023-01-04T20:14:48.867Z,3.47
2023-01-04T20:17:19.304Z,3.13
2023-01-04T20:19:49.048Z,1.50
2023-01-04T20:22:17.053Z,1.83
2023-01-04T20:24:45.159Z,1.02
2023-01-04T20:27:15.708Z,1.00
2023-01-04T20:29:43.683Z,2.45
2023-01-04T20:32:11.740Z,1.42
2023-01-04T20:34:39.775Z,1.70
2023-01-04T20:37:11.187Z,2.83
2023-01-04T20:39:39.306Z,1.08
2023-01-04T20:42:24.670Z,1.70
2023-01-04T20:44:52.955Z,2.83
2023-01-04T20:47:21.203Z,1.15
2023-01-04T20:49:49.362Z,2.72
2023-01-04T20:52:18.773Z,1.13
2023-01-04T20:54:50.317Z,0.77
2023-01-04T20:57:18.307Z,2.70
2023-01-04T20:59:51.566Z,1.25
2023-01-04T21:02:20.607Z,1.40
2023-01-04T21:04:48.858Z,0.95
2023-01-04T21:07:18.484Z,1.27
2023-01-04T21:09:46.467Z,0.88
2023-01-04T21:12:14.512Z,1.13
2023-01-04T21:14:43.121Z,1.77
2023-01-04T21:17:11.072Z,2.45
2023-01-04T21:19:39.033Z,3.22
2023-01-04T21:22:07.049Z,2.00
2023-01-04T21:24:36.618Z,2.33
2023-01-04T21:27:06.364Z,0.73
2023-01-04T21:29:34.369Z,1.83
2023-01-04T21:32:02.411Z,0.88
2023-01-04T21:34:31.620Z,3.05
2023-01-04T21:36:59.708Z,2.72
2023-01-04T21:39:27.682Z,1.95
2023-01-04T21:41:57.170Z,2.42
2023-01-04T21:44:25.238Z,1.40
2023-01-04T21:46:56.285Z,0.73
2023-01-04T21:49:24.301Z,2.38
2023-01-04T21:51:52.290Z,1.42
2023-01-04T21:54:20.360Z,2.03
2023-01-04T21:56:48.380Z,2.80
2023-01-04T21:59:21.032Z,2.08
2023-01-04T22:01:50.285Z,1.17
2023-01-04T22:04:18.516Z,0.95
2023-01-04T22:06:46.619Z,2.58
2023-01-04T22:09:14.667Z,1.92
2023-01-04T22:11:43.408Z,1.95
2023-01-04T22:14:11.520Z,1.25
2023-01-04T22:16:41.084Z,1.60
2023-01-04T22:19:12.630Z,1.45
2023-01-04T22:21:41.237Z,1.95
2023-01-04T22:24:12.123Z,1.08
2023-01-04T22:26:44.564Z,1.98
2023-01-04T22:29:18.869Z,1.88
2023-01-04T22:31:52.004Z,2.40
2023-01-04T22:34:20.399Z,1.13
2023-01-04T22:36:48.834Z,2.17
2023-01-04T22:39:16.943Z,2.58
2023-01-04T22:41:45.096Z,1.25
2023-01-04T22:44:14.907Z,1.27
2023-01-04T22:46:43.055Z,2.97
2023-01-04T22:49:12.518Z,1.25
2023-01-04T22:51:41.287Z,1.42
2023-01-04T22:54:11.193Z,1.27
2023-01-04T22:56:39.299Z,1.05
2023-01-04T22:59:07.474Z,1.88
2023-01-04T23:01:41.364Z,3.35
2023-01-04T23:04:17.383Z,2.10
2023-01-04T23:06:46.014Z,0.50
2023-01-04T23:09:16.755Z,1.88
2023-01-04T23:11:50.039Z,2.15
2023-01-04T23:14:18.880Z,1.35
2023-01-04T23:16:47.356Z,1.63
2023-01-04T23:19:22.369Z,4.00
2023-01-04T23:21:50.768Z,2.05
2023-01-04T23:24:21.680Z,2.75
2023-01-04T23:26:49.667Z,1.38
2023-01-04T23:29:17.804Z,1.15
2023-01-04T23:31:45.828Z,1.15
2023-01-04T23:34:17.174Z,1.48
2023-01-04T23:36:45.376Z,1.48
2023-01-04T23:39:16.173Z,2.10
2023-01-04T23:41:47.517Z,1.30
2023-01-04T23:44:18.530Z,1.33
2023-01-04T23:46:47.193Z,2.42
2023-01-04T23:49:19.616Z,1.27
2023-01-04T23:51:47.659Z,0.55
2023-01-04T23:54:15.670Z,1.63
2023-01-04T23:56:43.812Z,3.45
2023-01-04T23:59:11.967Z,0.82
